createdAt,value
2022-09-12T00:01:31.532Z,55.59
2022-09-12T00:04:02.428Z,55.41
2022-09-12T00:06:33.658Z,55.53
2022-09-12T00:09:05.176Z,55.44
2022-09-12T00:11:37.755Z,55.66
2022-09-12T00:14:07.876Z,55.66
2022-09-12T00:16:37.760Z,55.29
2022-09-12T00:19:07.742Z,55.61
2022-09-12T00:21:37.997Z,55.38
2022-09-12T00:24:06.974Z,55.47
2022-09-12T00:26:36.605Z,55.29
2022-09-12T00:29:05.224Z,55.29
2022-09-12T00:31:33.561Z,55.25
2022-09-12T00:34:02.233Z,55.13
2022-09-12T00:36:31.493Z,55.32
2022-09-12T00:39:00.122Z,55.25
2022-09-12T00:41:32.230Z,55.17
2022-09-12T00:44:05.753Z,55.32
2022-09-12T00:46:41.672Z,55.08
2022-09-12T00:49:16.516Z,55.20
2022-09-12T00:51:49.576Z,55.38
2022-09-12T00:54:23.036Z,55.32
2022-09-12T00:56:55.295Z,55.44
2022-09-12T00:59:28.942Z,55.42
2022-09-12T01:01:58.065Z,55.49
2022-09-12T01:04:28.893Z,55.53
2022-09-12T01:06:59.530Z,55.54
2022-09-12T01:09:27.937Z,55.45
2022-09-12T01:11:57.150Z,55.51
2022-09-12T01:14:26.907Z,55.37
2022-09-12T01:16:55.198Z,55.18
2022-09-12T01:20:05.807Z,55.41
2022-09-12T01:23:01.680Z,55.40
2022-09-12T01:25:39.634Z,55.51
2022-09-12T01:28:30.279Z,55.35
2022-09-12T01:31:05.170Z,55.57
2022-09-12T01:33:52.842Z,55.62
2022-09-12T01:36:39.275Z,55.56
2022-09-12T01:39:21.002Z,55.58
2022-09-12T01:41:59.356Z,55.51
2022-09-12T01:44:37.710Z,55.58
2022-09-12T01:47:13.621Z,55.63
2022-09-12T01:49:53.200Z,55.56
2022-09-12T01:52:26.666Z,55.63
2022-09-12T01:55:01.607Z,55.51
2022-09-12T01:57:36.488Z,55.43
2022-09-12T02:00:09.173Z,55.37
2022-09-12T02:02:42.329Z,55.40
2022-09-12T02:05:16.275Z,55.26
2022-09-12T02:07:49.677Z,55.47
2022-09-12T02:10:21.605Z,55.54
2022-09-12T02:12:54.696Z,55.59
2022-09-12T02:15:33.716Z,55.49
2022-09-12T02:18:06.543Z,55.40
2022-09-12T02:20:48.617Z,55.50
2022-09-12T02:23:22.406Z,55.29
2022-09-12T02:25:54.118Z,55.54
2022-09-12T02:28:27.833Z,55.53
2022-09-12T02:31:05.129Z,55.56
2022-09-12T02:33:44.451Z,55.55
2022-09-12T02:36:24.533Z,55.56
2022-09-12T02:38:52.909Z,55.50
2022-09-12T02:41:22.845Z,55.42
2022-09-12T02:43:53.070Z,55.47
2022-09-12T02:46:26.211Z,55.33
2022-09-12T02:48:56.732Z,55.27
2022-09-12T02:51:25.306Z,55.33
2022-09-12T02:53:54.409Z,55.38
2022-09-12T02:56:29.042Z,55.44
2022-09-12T02:59:02.946Z,55.50
2022-09-12T03:01:51.252Z,55.60
2022-09-12T03:04:55.408Z,55.64
2022-09-12T03:07:42.742Z,55.64
2022-09-12T03:10:21.417Z,55.44
2022-09-12T03:13:00.897Z,55.47
2022-09-12T03:15:44.461Z,55.48
2022-09-12T03:18:36.078Z,55.64
2022-09-12T03:21:13.868Z,55.63
2022-09-12T03:23:54.340Z,55.77
2022-09-12T03:26:31.935Z,55.68
2022-09-12T03:29:03.300Z,55.71
2022-09-12T03:31:31.741Z,55.75
2022-09-12T03:34:01.239Z,55.77
2022-09-12T03:36:32.002Z,55.95
2022-09-12T03:39:00.253Z,55.81
2022-09-12T03:41:28.583Z,55.88
2022-09-12T03:43:56.992Z,55.75
2022-09-12T03:46:25.318Z,55.80
2022-09-12T03:48:53.550Z,55.92
2022-09-12T03:51:22.256Z,55.83
2022-09-12T03:53:51.857Z,56.07
2022-09-12T03:56:20.342Z,56.03
2022-09-12T03:58:48.827Z,55.86
2022-09-12T04:01:20.846Z,56.16
2022-09-12T04:03:52.846Z,56.24
2022-09-12T04:06:23.543Z,56.14
2022-09-12T04:08:55.323Z,56.12
2022-09-12T04:11:24.525Z,56.19
2022-09-12T04:13:52.867Z,56.09
2022-09-12T04:16:21.456Z,56.24
2022-09-12T04:18:49.709Z,56.12
2022-09-12T04:21:21.805Z,56.27
2022-09-12T04:23:50.345Z,56.35
2022-09-12T04:26:21.491Z,56.45
2022-09-12T04:28:54.693Z,56.56
2022-09-12T04:31:23.565Z,56.79
2022-09-12T04:33:56.270Z,56.78
2022-09-12T04:36:25.112Z,56.86
2022-09-12T04:38:53.766Z,56.81
2022-09-12T04:41:26.481Z,56.97
2022-09-12T04:43:58.225Z,56.98
2022-09-12T04:46:27.674Z,56.98
2022-09-12T04:48:57.192Z,57.05
2022-09-12T04:51:28.289Z,57.19
2022-09-12T04:53:58.854Z,57.25
2022-09-12T04:56:30.405Z,57.35
2022-09-12T04:59:00.497Z,57.36
2022-09-12T05:01:30.896Z,57.33
2022-09-12T05:04:00.340Z,57.55
2022-09-12T05:06:31.593Z,57.58
2022-09-12T05:09:01.829Z,57.56
2022-09-12T05:12:00.062Z,57.44
2022-09-12T05:14:21.926Z,57.63
2022-09-12T05:16:50.226Z,57.61
2022-09-12T05:19:18.733Z,57.73
2022-09-12T05:21:47.059Z,57.60
2022-09-12T05:24:15.311Z,57.67
2022-09-12T05:26:44.884Z,57.53
2022-09-12T05:29:13.253Z,57.49
2022-09-12T05:31:41.875Z,57.43
2022-09-12T05:34:11.315Z,57.63
2022-09-12T05:36:39.620Z,57.75
2022-09-12T05:39:08.585Z,57.79
2022-09-12T05:41:36.946Z,57.77
2022-09-12T05:44:11.802Z,57.74
2022-09-12T05:46:42.238Z,57.78
2022-09-12T05:49:13.634Z,57.93
2022-09-12T05:51:44.100Z,58.03
2022-09-12T05:54:15.514Z,57.96
2022-09-12T05:56:45.324Z,58.19
2022-09-12T05:59:17.461Z,58.24
2022-09-12T06:01:46.411Z,58.34
2022-09-12T06:04:15.070Z,58.62
2022-09-12T06:06:45.989Z,58.53
2022-09-12T06:09:16.153Z,58.66
2022-09-12T06:11:46.150Z,58.71
2022-09-12T06:14:18.154Z,58.71
2022-09-12T06:16:47.285Z,58.66
2022-09-12T06:19:18.492Z,58.84
2022-09-12T06:21:48.347Z,58.82
2022-09-12T06:24:17.625Z,58.79
2022-09-12T06:26:47.463Z,58.79
2022-09-12T06:29:17.459Z,58.78
2022-09-12T06:31:47.021Z,59.00
2022-09-12T06:34:17.037Z,59.24
2022-09-12T06:36:47.777Z,59.40
2022-09-12T06:39:18.084Z,59.32
2022-09-12T06:41:46.939Z,59.41
2022-09-12T06:44:19.304Z,59.51
2022-09-12T06:46:48.193Z,59.79
2022-09-12T06:49:17.574Z,59.87
2022-09-12T06:51:46.024Z,59.98
2022-09-12T06:54:16.887Z,59.89
2022-09-12T06:56:45.988Z,59.97
2022-09-12T06:59:15.932Z,59.92
2022-09-12T07:01:44.276Z,59.79
2022-09-12T07:04:12.716Z,59.84
2022-09-12T07:06:44.543Z,60.06
2022-09-12T07:09:16.362Z,60.13
2022-09-12T07:11:45.355Z,60.44
2022-09-12T07:14:16.877Z,60.37
2022-09-12T07:16:45.480Z,60.46
2022-09-12T07:19:13.772Z,60.53
2022-09-12T07:21:42.155Z,60.72
2022-09-12T07:24:11.649Z,60.65
2022-09-12T07:26:42.140Z,60.70
2022-09-12T07:29:36.902Z,60.71
2022-09-12T07:32:06.695Z,60.53
2022-09-12T07:34:35.913Z,60.68
2022-09-12T07:37:04.187Z,60.63
2022-09-12T07:39:32.541Z,60.64
2022-09-12T07:42:01.460Z,60.59
2022-09-12T07:44:31.147Z,60.43
2022-09-12T07:46:59.415Z,60.26
2022-09-12T07:49:27.656Z,60.04
2022-09-12T07:51:55.973Z,59.88
2022-09-12T07:54:24.628Z,60.10
2022-09-12T07:56:52.835Z,60.06
2022-09-12T07:59:35.659Z,60.10
2022-09-12T08:02:17.484Z,59.99
2022-09-12T08:04:47.733Z,59.79
2022-09-12T08:07:18.357Z,60.29
2022-09-12T08:09:47.313Z,60.31
2022-09-12T08:12:16.561Z,60.28
2022-09-12T08:14:44.937Z,60.13
2022-09-12T08:17:14.584Z,60.53
2022-09-12T08:19:42.879Z,60.10
2022-09-12T08:22:11.239Z,60.00
2022-09-12T08:24:40.478Z,59.69
2022-09-12T08:27:09.212Z,59.57
2022-09-12T08:29:37.410Z,58.88
2022-09-12T08:32:05.763Z,58.99
2022-09-12T08:34:35.358Z,58.66
2022-09-12T08:37:04.121Z,58.29
2022-09-12T08:39:32.695Z,58.05
2022-09-12T08:42:04.271Z,57.43
2022-09-12T08:45:02.137Z,57.43
2022-09-12T08:47:33.998Z,56.79
2022-09-12T08:50:16.469Z,56.43
2022-09-12T08:52:53.999Z,55.67
2022-09-12T08:55:32.758Z,55.65
2022-09-12T08:58:02.617Z,54.50
2022-09-12T09:00:44.626Z,54.22
2022-09-12T09:03:49.447Z,53.90
2022-09-12T09:06:43.842Z,53.27
2022-09-12T09:09:20.032Z,52.53
2022-09-12T09:12:01.438Z,52.10
2022-09-12T09:14:54.383Z,51.72
2022-09-12T09:17:30.312Z,51.15
2022-09-12T09:20:05.585Z,51.19
2022-09-12T09:22:45.590Z,50.75
2022-09-12T09:25:23.071Z,50.18
2022-09-12T09:27:58.851Z,49.10
2022-09-12T09:30:28.588Z,48.69
2022-09-12T09:33:00.937Z,48.21
2022-09-12T09:35:42.601Z,48.29
2022-09-12T09:38:27.004Z,47.08
2022-09-12T09:41:20.977Z,47.39
2022-09-12T09:43:49.282Z,46.52
2022-09-12T09:46:17.668Z,45.99
2022-09-12T09:48:49.406Z,46.11
2022-09-12T09:51:28.018Z,45.53
2022-09-12T09:54:02.440Z,44.37
2022-09-12T09:56:37.034Z,43.20
2022-09-12T09:59:12.879Z,43.35
2022-09-12T10:01:47.880Z,42.89
2022-09-12T10:04:22.597Z,42.78
2022-09-12T10:06:54.364Z,41.41
2022-09-12T10:09:27.747Z,41.37
2022-09-12T10:11:57.715Z,41.52
2022-09-12T10:14:36.767Z,39.47
2022-09-12T10:17:33.199Z,40.19
2022-09-12T10:20:20.431Z,39.54
2022-09-12T10:22:50.294Z,40.34
2022-09-12T10:25:21.545Z,38.64
2022-09-12T10:27:56.290Z,38.91
2022-09-12T10:30:28.282Z,39.15
2022-09-12T10:33:07.522Z,38.75
2022-09-12T10:35:47.200Z,38.77
2022-09-12T10:38:23.435Z,38.27
2022-09-12T10:41:00.444Z,38.04
2022-09-12T10:43:33.116Z,37.88
2022-09-12T10:46:22.888Z,38.30
2022-09-12T10:48:53.611Z,37.73
2022-09-12T10:51:29.858Z,38.38
2022-09-12T10:54:00.643Z,39.31
2022-09-12T10:56:32.910Z,39.49
2022-09-12T10:59:22.506Z,39.11
2022-09-12T11:01:56.114Z,37.86
2022-09-12T11:04:41.922Z,36.60
2022-09-12T11:07:37.926Z,37.41
2022-09-12T11:10:21.945Z,38.76
2022-09-12T11:13:01.826Z,38.61
2022-09-12T11:15:46.140Z,38.56
2022-09-12T11:18:34.886Z,38.46
2022-09-12T11:21:27.522Z,38.31
2022-09-12T11:24:28.738Z,37.60
2022-09-12T11:27:12.105Z,36.96
2022-09-12T11:29:51.186Z,36.66
2022-09-12T11:32:53.458Z,36.28
2022-09-12T11:35:27.425Z,35.98
2022-09-12T11:38:27.031Z,35.83
2022-09-12T11:40:58.133Z,34.97
2022-09-12T11:43:37.408Z,35.24
2022-09-12T11:46:16.780Z,34.83
2022-09-12T11:48:54.804Z,34.93
2022-09-12T11:51:28.960Z,34.07
2022-09-12T11:54:17.209Z,35.25
2022-09-12T11:56:48.850Z,34.71
2022-09-12T11:59:32.416Z,35.08
2022-09-12T12:02:03.223Z,34.57
2022-09-12T12:04:41.201Z,34.20
2022-09-12T12:07:12.409Z,34.91
2022-09-12T12:09:50.393Z,33.38
2022-09-12T12:12:25.317Z,33.64
2022-09-12T12:14:55.868Z,33.20
2022-09-12T12:17:27.045Z,33.10
2022-09-12T12:20:05.793Z,32.64
2022-09-12T12:22:37.209Z,32.39
2022-09-12T12:25:28.856Z,32.27
2022-09-12T12:28:01.798Z,32.42
2022-09-12T12:31:03.244Z,32.87
2022-09-12T12:34:04.379Z,32.77
2022-09-12T12:36:43.874Z,32.29
2022-09-12T12:40:05.910Z,33.24
2022-09-12T12:43:31.927Z,33.62
2022-09-12T12:46:10.534Z,32.65
2022-09-12T12:49:12.610Z,33.49
2022-09-12T12:52:01.485Z,33.72
2022-09-12T12:54:58.982Z,33.65
2022-09-12T12:57:34.378Z,33.88
2022-09-12T13:00:08.426Z,33.80
2022-09-12T13:02:40.047Z,33.41
2022-09-12T13:05:21.422Z,33.72
2022-09-12T13:07:57.703Z,33.40
2022-09-12T13:10:29.498Z,33.15
2022-09-12T13:13:01.796Z,33.73
2022-09-12T13:15:57.339Z,33.26
2022-09-12T13:18:29.386Z,33.55
2022-09-12T13:21:09.569Z,33.29
2022-09-12T13:23:38.132Z,33.42
2022-09-12T13:26:14.057Z,33.50
2022-09-12T13:28:42.508Z,32.97
2022-09-12T13:31:21.475Z,32.87
2022-09-12T13:33:52.519Z,32.59
2022-09-12T13:37:07.042Z,32.81
2022-09-12T13:39:49.594Z,33.29
2022-09-12T13:42:42.713Z,33.04
2022-09-12T13:45:21.265Z,32.70
2022-09-12T13:47:58.395Z,33.19
2022-09-12T13:50:29.961Z,32.46
2022-09-12T13:53:03.311Z,32.39
2022-09-12T13:55:36.327Z,32.24
2022-09-12T13:58:06.683Z,32.27
2022-09-12T14:00:37.265Z,32.52
2022-09-12T14:03:47.538Z,32.69
2022-09-12T14:06:16.364Z,32.75
2022-09-12T14:08:48.187Z,32.88
2022-09-12T14:11:27.066Z,32.79
2022-09-12T14:13:56.313Z,32.76
2022-09-12T14:16:27.381Z,32.77
2022-09-12T14:18:56.183Z,32.52
2022-09-12T14:21:37.224Z,32.76
2022-09-12T14:24:10.851Z,31.94
2022-09-12T14:26:41.227Z,32.18
2022-09-12T14:29:13.570Z,32.53
2022-09-12T14:31:43.589Z,33.00
2022-09-12T14:34:15.577Z,32.65
2022-09-12T14:36:47.816Z,32.60
2022-09-12T14:39:30.874Z,33.02
2022-09-12T14:42:07.063Z,32.76
2022-09-12T14:44:36.882Z,32.71
2022-09-12T14:47:19.355Z,32.97
2022-09-12T14:49:47.713Z,33.17
2022-09-12T14:52:27.686Z,33.04
2022-09-12T14:55:03.009Z,33.47
2022-09-12T14:57:40.118Z,33.01
2022-09-12T15:00:23.210Z,32.90
2022-09-12T15:02:53.656Z,33.42
2022-09-12T15:05:26.789Z,33.40
2022-09-12T15:07:59.026Z,33.36
2022-09-12T15:10:33.043Z,33.69
2022-09-12T15:13:20.752Z,33.57
2022-09-12T15:15:53.013Z,33.88
2022-09-12T15:18:24.511Z,33.62
2022-09-12T15:20:55.885Z,34.01
2022-09-12T15:23:35.097Z,33.98
2022-09-12T15:26:05.837Z,34.14
2022-09-12T15:28:34.928Z,34.15
2022-09-12T15:31:08.912Z,33.97
2022-09-12T15:33:37.285Z,34.86
2022-09-12T15:36:14.573Z,34.74
2022-09-12T15:38:44.657Z,34.25
2022-09-12T15:41:18.600Z,34.75
2022-09-12T15:43:47.927Z,34.98
2022-09-12T15:46:19.279Z,34.97
2022-09-12T15:48:47.714Z,35.41
2022-09-12T15:51:18.322Z,35.80
2022-09-12T15:53:48.274Z,35.65
2022-09-12T15:56:20.125Z,35.65
2022-09-12T15:58:58.692Z,36.23
2022-09-12T16:01:29.335Z,36.20
2022-09-12T16:03:58.246Z,36.96
2022-09-12T16:06:27.204Z,37.15
2022-09-12T16:08:55.456Z,37.30
2022-09-12T16:11:27.708Z,37.18
2022-09-12T16:13:56.843Z,36.94
2022-09-12T16:16:25.192Z,37.18
2022-09-12T16:18:53.556Z,37.35
2022-09-12T16:21:21.846Z,37.09
2022-09-12T16:23:50.269Z,37.27
2022-09-12T16:26:19.009Z,37.25
2022-09-12T16:28:48.958Z,37.03
2022-09-12T16:31:17.477Z,37.43
2022-09-12T16:33:45.783Z,37.89
2022-09-12T16:36:16.932Z,37.49
2022-09-12T16:38:47.222Z,38.16
2022-09-12T16:41:17.377Z,37.88
2022-09-12T16:43:46.885Z,37.97
2022-09-12T16:46:20.882Z,37.82
2022-09-12T16:48:52.821Z,38.28
2022-09-12T16:51:23.643Z,38.30
2022-09-12T16:53:52.310Z,38.75
2022-09-12T16:56:22.148Z,38.62
2022-09-12T16:58:50.763Z,38.64
2022-09-12T17:01:22.936Z,38.69
2022-09-12T17:03:55.200Z,38.76
2022-09-12T17:06:23.524Z,38.90
2022-09-12T17:08:54.005Z,39.07
2022-09-12T17:11:24.874Z,38.74
2022-09-12T17:14:11.705Z,39.01
2022-09-12T17:16:48.031Z,39.16
2022-09-12T17:19:22.608Z,39.43
2022-09-12T17:21:50.936Z,39.49
2022-09-12T17:24:19.978Z,39.62
2022-09-12T17:26:48.373Z,39.78
2022-09-12T17:29:18.073Z,39.96
2022-09-12T17:31:48.135Z,39.56
2022-09-12T17:34:17.636Z,40.13
2022-09-12T17:36:48.418Z,39.68
2022-09-12T17:39:17.107Z,39.94
2022-09-12T17:41:46.116Z,39.92
2022-09-12T17:44:16.037Z,39.96
2022-09-12T17:46:44.931Z,39.78
2022-09-12T17:49:16.688Z,40.16
2022-09-12T17:51:45.889Z,40.47
2022-09-12T17:54:16.980Z,40.76
2022-09-12T17:56:49.001Z,41.00
2022-09-12T17:59:20.013Z,41.36
2022-09-12T18:02:06.368Z,41.56
2022-09-12T18:04:36.486Z,41.90
2022-09-12T18:07:05.121Z,42.08
2022-09-12T18:09:33.466Z,42.43
2022-09-12T18:12:01.808Z,42.56
2022-09-12T18:14:30.402Z,42.92
2022-09-12T18:17:00.232Z,43.21
2022-09-12T18:19:29.359Z,43.55
2022-09-12T18:21:59.651Z,43.62
2022-09-12T18:24:28.161Z,43.92
2022-09-12T18:26:57.665Z,44.10
2022-09-12T18:29:27.915Z,44.10
2022-09-12T18:31:56.259Z,44.14
2022-09-12T18:34:24.570Z,44.30
2022-09-12T18:36:54.857Z,44.39
2022-09-12T18:39:27.664Z,44.51
2022-09-12T18:41:56.935Z,44.45
2022-09-12T18:44:25.280Z,44.60
2022-09-12T18:46:53.957Z,44.83
2022-09-12T18:49:22.357Z,44.70
2022-09-12T18:51:50.695Z,44.96
2022-09-12T18:54:19.415Z,44.89
2022-09-12T18:56:49.282Z,45.11
2022-09-12T18:59:17.809Z,45.33
2022-09-12T19:01:46.334Z,45.25
2022-09-12T19:04:16.540Z,45.29
2022-09-12T19:06:46.934Z,45.36
2022-09-12T19:09:18.075Z,45.55
2022-09-12T19:11:50.159Z,45.58
2022-09-12T19:14:22.654Z,45.51
2022-09-12T19:16:52.158Z,45.41
2022-09-12T19:19:21.271Z,45.61
2022-09-12T19:21:49.678Z,45.70
2022-09-12T19:24:18.411Z,45.81
2022-09-12T19:26:49.200Z,46.18
2022-09-12T19:29:17.880Z,46.10
2022-09-12T19:31:47.058Z,46.06
2022-09-12T19:34:15.823Z,46.32
2022-09-12T19:36:46.336Z,46.08
2022-09-12T19:39:16.442Z,46.47
2022-09-12T19:41:45.468Z,46.61
2022-09-12T19:44:15.730Z,46.30
2022-09-12T19:46:44.191Z,46.43
2022-09-12T19:49:13.760Z,46.60
2022-09-12T19:51:42.527Z,46.44
2022-09-12T19:54:11.114Z,46.62
2022-09-12T19:56:39.454Z,46.70
2022-09-12T19:59:08.772Z,46.81
2022-09-12T20:01:38.655Z,46.71
2022-09-12T20:04:07.720Z,46.75
2022-09-12T20:06:36.870Z,46.55
2022-09-12T20:09:05.474Z,46.72
2022-09-12T20:11:34.005Z,47.00
2022-09-12T20:14:02.512Z,46.73
2022-09-12T20:16:31.702Z,47.11
2022-09-12T20:19:06.013Z,47.22
2022-09-12T20:21:36.116Z,46.96
2022-09-12T20:24:07.045Z,47.04
2022-09-12T20:26:35.954Z,47.13
2022-09-12T20:29:05.398Z,47.00
2022-09-12T20:31:34.630Z,46.98
2022-09-12T20:34:04.548Z,47.10
2022-09-12T20:36:33.103Z,47.21
2022-09-12T20:39:03.037Z,47.01
2022-09-12T20:41:35.305Z,47.42
2022-09-12T20:44:04.085Z,47.38
2022-09-12T20:46:33.138Z,47.10
2022-09-12T20:49:02.794Z,47.24
2022-09-12T20:51:31.364Z,47.28
2022-09-12T20:54:01.683Z,47.37
2022-09-12T20:56:31.740Z,47.22
2022-09-12T20:59:01.045Z,47.26
2022-09-12T21:01:31.307Z,47.61
2022-09-12T21:04:01.476Z,47.52
2022-09-12T21:06:32.434Z,47.63
2022-09-12T21:09:00.905Z,47.72
2022-09-12T21:11:29.917Z,47.73
2022-09-12T21:13:58.496Z,47.69
2022-09-12T21:16:26.925Z,47.99
2022-09-12T21:18:57.182Z,47.80
2022-09-12T21:21:25.953Z,47.96
2022-09-12T21:23:59.700Z,47.88
2022-09-12T21:26:28.370Z,48.03
2022-09-12T21:28:56.809Z,48.05
2022-09-12T21:31:26.474Z,47.92
2022-09-12T21:33:54.800Z,48.14
2022-09-12T21:36:23.153Z,47.89
2022-09-12T21:38:51.424Z,48.22
2022-09-12T21:41:21.062Z,48.42
2022-09-12T21:43:49.880Z,48.50
2022-09-12T21:46:18.625Z,48.68
2022-09-12T21:48:47.162Z,48.44
2022-09-12T21:51:15.434Z,48.65
2022-09-12T21:53:43.714Z,48.80
2022-09-12T21:56:12.051Z,48.77
2022-09-12T21:58:41.723Z,48.77
2022-09-12T22:01:12.966Z,48.95
2022-09-12T22:03:43.071Z,48.84
2022-09-12T22:06:14.802Z,48.88
2022-09-12T22:08:43.366Z,48.90
2022-09-12T22:11:11.678Z,48.91
2022-09-12T22:13:43.822Z,49.15
2022-09-12T22:16:12.780Z,49.42
2022-09-12T22:18:41.331Z,49.28
2022-09-12T22:21:13.387Z,49.56
2022-09-12T22:23:59.437Z,49.59
2022-09-12T22:26:28.188Z,49.87
2022-09-12T22:28:57.888Z,49.57
2022-09-12T22:31:27.016Z,49.82
2022-09-12T22:33:57.111Z,49.84
2022-09-12T22:36:30.461Z,49.92
2022-09-12T22:38:59.724Z,50.09
2022-09-12T22:41:28.498Z,50.01
2022-09-12T22:43:58.507Z,49.84
2022-09-12T22:46:27.277Z,50.01
2022-09-12T22:48:56.051Z,49.97
2022-09-12T22:51:24.403Z,49.85
2022-09-12T22:53:52.796Z,50.03
2022-09-12T22:56:21.241Z,50.17
2022-09-12T22:58:49.590Z,50.40
2022-09-12T23:01:19.439Z,50.22
2022-09-12T23:03:47.929Z,50.33
2022-09-12T23:06:16.457Z,50.14
2022-09-12T23:08:45.030Z,50.29
2022-09-12T23:11:15.730Z,50.26
2022-09-12T23:13:46.188Z,50.21
2022-09-12T23:16:20.132Z,50.40
2022-09-12T23:18:49.439Z,50.38
2022-09-12T23:21:20.513Z,50.34
2022-09-12T23:23:49.029Z,50.60
2022-09-12T23:26:20.037Z,50.68
2022-09-12T23:28:53.917Z,50.60
2022-09-12T23:31:25.766Z,50.81
2022-09-12T23:33:54.797Z,50.72
2022-09-12T23:36:23.913Z,50.88
2022-09-12T23:38:52.552Z,50.69
2022-09-12T23:41:20.897Z,50.73
2022-09-12T23:43:49.359Z,50.94
2022-09-12T23:46:19.173Z,50.84
2022-09-12T23:48:49.462Z,51.01
2022-09-12T23:51:18.097Z,51.29
2022-09-12T23:53:46.478Z,51.02
2022-09-12T23:56:14.826Z,51.19
2022-09-12T23:58:43.057Z,51.11
